Time,TemperatureF,DewpointF,PressureIn,WindDirection,WindDirectionDegrees,WindSpeedMPH,WindSpeedGustMPH,Humidity,HourlyPrecipIn,Conditions,Clouds,dailyrainin,SoftwareType,DateUTC
2013-02-24 00:00:00,38.2,37.4,29.81,NNE,28,2.0,4.0,97,0.01,,,0.11,VWS V14.01,2013-02-24 05:00:00,
2013-02-24 00:02:00,38.2,37.4,29.82,NNE,28,2.0,2.0,97,0.00,,,0.00,VWS V14.01,2013-02-24 05:02:00,
2013-02-24 00:07:00,38.1,37.3,29.82,NNE,28,2.0,4.0,97,0.01,,,0.01,VWS V14.01,2013-02-24 05:07:00,
2013-02-24 00:12:00,38.1,37.3,29.82,NNE,28,2.0,0.0,97,0.01,,,0.01,VWS V14.01,2013-02-24 05:12:00,
2013-02-24 00:17:00,38.1,37.3,29.82,NNE,28,2.0,0.0,97,0.01,,,0.01,VWS V14.01,2013-02-24 05:17:00,
2013-02-24 00:22:00,38.1,37.3,29.81,NNE,28,2.0,0.0,97,0.01,,,0.01,VWS V14.01,2013-02-24 05:22:00,
2013-02-24 00:27:00,38.0,37.2,29.81,NNE,28,2.0,2.0,97,0.01,,,0.01,VWS V14.01,2013-02-24 05:27:00,
2013-02-24 00:32:00,38.0,37.2,29.81,NNE,28,2.0,4.0,97,0.01,,,0.01,VWS V14.01,2013-02-24 05:32:00,
2013-02-24 00:37:00,38.0,37.2,29.81,NNE,28,2.0,4.0,97,0.01,,,0.01,VWS V14.01,2013-02-24 05:37:00,
2013-02-24 00:43:00,38.0,37.2,29.81,NNE,28,2.0,2.0,97,0.01,,,0.01,VWS V14.01,2013-02-24 05:43:00,
2013-02-24 00:48:00,38.0,37.2,29.81,NNE,28,2.0,4.0,97,0.01,,,0.01,VWS V14.01,2013-02-24 05:48:00,
2013-02-24 00:53:00,37.9,37.1,29.81,NNE,28,2.0,2.0,97,0.01,,,0.01,VWS V14.01,2013-02-24 05:53:00,
2013-02-24 00:58:00,37.9,37.1,29.81,NNE,25,2.0,4.0,97,0.01,,,0.01,VWS V14.01,2013-02-24 05:58:00,
2013-02-24 01:03:00,37.9,37.1,29.81,NNE,24,2.0,8.0,97,0.01,,,0.01,VWS V14.01,2013-02-24 06:03:00,
2013-02-24 01:08:00,37.9,37.1,29.81,NNE,24,2.0,8.0,97,0.01,,,0.01,VWS V14.01,2013-02-24 06:08:00,
2013-02-24 01:13:00,37.9,37.1,29.81,NNE,22,2.0,2.0,97,0.00,,,0.01,VWS V14.01,2013-02-24 06:13:00,
2013-02-24 01:18:00,37.9,37.1,29.81,NNE,22,5.0,6.0,97,0.00,,,0.01,VWS V14.01,2013-02-24 06:18:00,
2013-02-24 01:23:00,37.9,37.1,29.82,NNE,22,2.0,6.0,97,0.00,,,0.01,VWS V14.01,2013-02-24 06:23:00,
2013-02-24 01:28:00,37.9,37.1,29.81,NNE,22,2.0,6.0,97,0.00,,,0.01,VWS V14.01,2013-02-24 06:28:00,
2013-02-24 01:33:00,37.9,37.1,29.81,NNE,22,2.0,0.0,97,0.00,,,0.01,VWS V14.01,2013-02-24 06:33:00,
2013-02-24 01:38:00,37.9,37.1,29.81,NNE,22,2.0,2.0,97,0.00,,,0.01,VWS V14.01,2013-02-24 06:38:00,
2013-02-24 01:44:00,37.9,37.1,29.81,NNE,22,2.0,4.0,97,0.01,,,0.02,VWS V14.01,2013-02-24 06:44:00,
2013-02-24 01:49:00,38.0,37.5,29.81,NNE,22,2.0,4.0,98,0.01,,,0.02,VWS V14.01,2013-02-24 06:49:00,
2013-02-24 01:54:00,38.0,37.5,29.81,NNE,22,2.0,2.0,98,0.01,,,0.02,VWS V14.01,2013-02-24 06:54:00,
2013-02-24 01:59:00,38.0,37.5,29.81,NNE,22,2.0,2.0,98,0.01,,-RA,0.02,VWS V14.01,2013-02-24 06:59:00,
2013-02-24 02:04:00,38.0,37.5,29.81,NNE,22,2.0,4.0,98,0.01,,-RA,0.02,VWS V14.01,2013-02-24 07:04:00,
2013-02-24 02:09:00,38.0,37.5,29.81,NNE,22,2.0,4.0,98,0.01,,-RA,0.02,VWS V14.01,2013-02-24 07:09:00,
2013-02-24 02:14:00,38.0,37.5,29.80,NNE,26,2.0,4.0,98,0.02,,-RA,0.03,VWS V14.01,2013-02-24 07:14:00,
2013-02-24 02:19:00,38.1,37.6,29.80,NNE,27,2.0,4.0,98,0.02,,-RA,0.03,VWS V14.01,2013-02-24 07:19:00,
2013-02-24 02:24:00,38.0,37.5,29.80,NNE,27,2.0,4.0,98,0.02,,-RA,0.03,VWS V14.01,2013-02-24 07:24:00,
2013-02-24 02:29:00,38.1,37.6,29.80,NNE,27,2.0,4.0,98,0.02,,-RA,0.03,VWS V14.01,2013-02-24 07:29:00,
2013-02-24 02:34:00,38.1,37.6,29.80,NNE,27,2.0,2.0,98,0.02,,-RA,0.03,VWS V14.01,2013-02-24 07:34:00,
2013-02-24 02:39:00,38.1,37.6,29.79,NNE,27,2.0,2.0,98,0.02,,-RA,0.03,VWS V14.01,2013-02-24 07:39:00,
2013-02-24 02:45:00,38.1,37.6,29.80,NNE,27,2.0,6.0,98,0.02,,-RA,0.03,VWS V14.01,2013-02-24 07:45:00,
2013-02-24 02:50:00,38.1,37.6,29.80,NNE,26,5.0,6.0,98,0.03,,-RA,0.04,VWS V14.01,2013-02-24 07:50:00,
2013-02-24 02:55:00,38.1,37.6,29.80,NW,317,2.0,8.0,98,0.02,,-RA,0.04,VWS V14.01,2013-02-24 07:55:00,
2013-02-24 03:00:00,38.2,37.7,29.80,NW,317,2.0,8.0,98,0.02,,,0.04,VWS V14.01,2013-02-24 08:00:00,
2013-02-24 03:05:00,38.2,37.7,29.80,NW,317,2.0,0.0,98,0.02,,,0.04,VWS V14.01,2013-02-24 08:05:00,
2013-02-24 03:10:00,38.2,37.7,29.80,NW,317,2.0,0.0,98,0.02,,,0.04,VWS V14.01,2013-02-24 08:10:00,
2013-02-24 03:15:00,38.3,37.8,29.79,NE,36,2.0,10.0,98,0.02,,,0.04,VWS V14.01,2013-02-24 08:15:00,
2013-02-24 03:20:00,38.3,37.8,29.79,NE,36,2.0,10.0,98,0.02,,,0.04,VWS V14.01,2013-02-24 08:20:00,
2013-02-24 03:25:00,38.3,37.8,29.79,NE,36,2.0,2.0,98,0.01,,,0.04,VWS V14.01,2013-02-24 08:25:00,
2013-02-24 03:30:00,38.3,37.8,29.80,NE,36,2.0,2.0,98,0.01,,,0.04,VWS V14.01,2013-02-24 08:30:00,
2013-02-24 03:35:00,38.3,37.8,29.80,NE,36,2.0,0.0,98,0.01,,,0.04,VWS V14.01,2013-02-24 08:35:00,
2013-02-24 03:40:00,38.4,37.9,29.80,NE,36,2.0,0.0,98,0.01,,,0.04,VWS V14.01,2013-02-24 08:40:00,
2013-02-24 03:45:00,38.4,37.9,29.80,NE,36,2.0,2.0,98,0.01,,,0.04,VWS V14.01,2013-02-24 08:45:00,
2013-02-24 03:50:00,38.5,38.0,29.80,NE,36,2.0,0.0,98,0.00,,,0.04,VWS V14.01,2013-02-24 08:50:00,
2013-02-24 03:55:00,38.5,38.0,29.80,NE,36,2.0,0.0,98,0.00,,OVC011,0.04,VWS V14.01,2013-02-24 08:55:00,
2013-02-24 04:01:00,38.5,38.0,29.80,NE,36,2.0,0.0,98,0.00,,OVC011,0.04,VWS V14.01,2013-02-24 09:01:00,
2013-02-24 04:06:00,38.5,38.0,29.80,NE,36,2.0,0.0,98,0.00,,OVC011,0.04,VWS V14.01,2013-02-24 09:06:00,
2013-02-24 04:11:00,38.5,38.0,29.80,NE,36,2.0,0.0,98,0.00,,OVC011,0.04,VWS V14.01,2013-02-24 09:11:00,
2013-02-24 04:16:00,38.5,38.0,29.80,NE,36,2.0,2.0,98,0.00,,OVC011,0.04,VWS V14.01,2013-02-24 09:16:00,
2013-02-24 04:21:00,38.5,38.0,29.80,NE,36,2.0,0.0,98,0.00,,OVC011,0.04,VWS V14.01,2013-02-24 09:21:00,
2013-02-24 04:26:00,38.5,38.0,29.79,NE,36,2.0,0.0,98,0.00,,OVC011,0.04,VWS V14.01,2013-02-24 09:26:00,
2013-02-24 04:31:00,38.4,37.9,29.79,NE,36,2.0,0.0,98,0.00,,OVC011,0.04,VWS V14.01,2013-02-24 09:31:00,
2013-02-24 04:36:00,38.3,37.8,29.78,NE,36,2.0,0.0,98,0.00,,OVC011,0.04,VWS V14.01,2013-02-24 09:36:00,
2013-02-24 04:41:00,38.2,37.7,29.78,NE,36,2.0,0.0,98,0.00,,OVC011,0.04,VWS V14.01,2013-02-24 09:41:00,
2013-02-24 04:46:00,38.1,37.6,29.77,NE,36,2.0,0.0,98,0.00,,OVC011,0.04,VWS V14.01,2013-02-24 09:46:00,
2013-02-24 04:51:00,38.0,37.5,29.77,NE,36,2.0,0.0,98,0.00,,OVC011,0.04,VWS V14.01,2013-02-24 09:51:00,
2013-02-24 04:57:00,38.0,37.5,29.76,NE,36,2.0,0.0,98,0.00,,,0.04,VWS V14.01,2013-02-24 09:57:00,
2013-02-24 05:02:00,37.9,37.4,29.76,NE,36,2.0,0.0,98,0.00,,,0.04,VWS V14.01,2013-02-24 10:02:00,
2013-02-24 05:07:00,37.9,37.4,29.77,NE,36,2.0,4.0,98,0.00,,,0.04,VWS V14.01,2013-02-24 10:07:00,
2013-02-24 05:12:00,37.9,37.4,29.78,NE,36,2.0,4.0,98,0.00,,,0.04,VWS V14.01,2013-02-24 10:12:00,
2013-02-24 05:17:00,37.9,37.4,29.78,NE,36,2.0,4.0,98,0.00,,,0.04,VWS V14.01,2013-02-24 10:17:00,
2013-02-24 05:22:00,37.8,37.3,29.78,NE,36,2.0,0.0,98,0.00,,,0.04,VWS V14.01,2013-02-24 10:22:00,
2013-02-24 05:27:00,37.8,37.3,29.77,NE,36,2.0,0.0,98,0.00,,,0.04,VWS V14.01,2013-02-24 10:27:00,
2013-02-24 05:32:00,37.8,37.3,29.77,NE,36,2.0,0.0,98,0.00,,,0.04,VWS V14.01,2013-02-24 10:32:00,
2013-02-24 05:37:00,37.9,37.4,29.76,NE,36,2.0,4.0,98,0.00,,,0.04,VWS V14.01,2013-02-24 10:37:00,
2013-02-24 05:42:00,37.9,37.4,29.76,NNW,333,2.0,8.0,98,0.00,,,0.04,VWS V14.01,2013-02-24 10:42:00,
2013-02-24 05:47:00,37.9,37.4,29.77,NNW,333,2.0,8.0,98,0.00,,,0.04,VWS V14.01,2013-02-24 10:47:00,
2013-02-24 05:52:00,37.8,37.3,29.77,NNW,333,2.0,2.0,98,0.00,,,0.04,VWS V14.01,2013-02-24 10:52:00,
2013-02-24 05:57:00,37.8,37.3,29.77,NNW,345,2.0,8.0,98,0.00,,CLR,0.04,VWS V14.01,2013-02-24 10:57:00,
2013-02-24 06:02:00,37.8,37.3,29.77,NW,317,2.0,6.0,98,0.00,,CLR,0.04,VWS V14.01,2013-02-24 11:02:00,
2013-02-24 06:07:00,37.8,37.3,29.77,North,360,2.0,6.0,98,0.00,,CLR,0.04,VWS V14.01,2013-02-24 11:07:00,
2013-02-24 06:13:00,37.7,37.2,29.77,North,360,2.0,4.0,98,0.00,,CLR,0.04,VWS V14.01,2013-02-24 11:13:00,
2013-02-24 06:18:00,37.7,37.7,29.76,NNW,338,2.0,8.0,100,0.00,,CLR,0.04,VWS V14.01,2013-02-24 11:18:00,
2013-02-24 06:23:00,37.6,37.1,29.76,NNW,337,2.0,0.0,98,0.00,,CLR,0.04,VWS V14.01,2013-02-24 11:23:00,
2013-02-24 06:28:00,37.6,37.1,29.76,NNW,337,2.0,4.0,98,0.00,,CLR,0.04,VWS V14.01,2013-02-24 11:28:00,
2013-02-24 06:33:00,37.6,37.1,29.77,NNW,338,2.0,4.0,98,0.00,,CLR,0.04,VWS V14.01,2013-02-24 11:33:00,
2013-02-24 06:38:00,37.6,37.1,29.77,NNW,338,2.0,4.0,98,0.00,,CLR,0.04,VWS V14.01,2013-02-24 11:38:00,
2013-02-24 06:43:00,37.5,37.0,29.77,NNW,337,2.0,0.0,98,0.00,,CLR,0.04,VWS V14.01,2013-02-24 11:43:00,
2013-02-24 06:48:00,37.4,36.9,29.78,NNW,337,2.0,0.0,98,0.00,,CLR,0.04,VWS V14.01,2013-02-24 11:48:00,
2013-02-24 06:53:00,37.4,36.9,29.78,NNW,338,2.0,0.0,98,0.00,,CLR,0.04,VWS V14.01,2013-02-24 11:53:00,
2013-02-24 06:58:00,37.4,36.9,29.78,NNW,338,2.0,0.0,98,0.00,,FEW120,0.04,VWS V14.01,2013-02-24 11:58:00,
2013-02-24 07:03:00,37.3,36.8,29.78,NNW,337,2.0,0.0,98,0.00,,FEW120,0.04,VWS V14.01,2013-02-24 12:03:00,
2013-02-24 07:09:00,37.3,36.8,29.78,NNW,338,2.0,0.0,98,0.00,,FEW120,0.04,VWS V14.01,2013-02-24 12:09:00,
2013-02-24 07:14:00,37.2,36.7,29.78,NNW,337,2.0,0.0,98,0.00,,FEW120,0.04,VWS V14.01,2013-02-24 12:14:00,
2013-02-24 07:19:00,37.2,36.7,29.78,NNW,337,2.0,0.0,98,0.00,,FEW120,0.04,VWS V14.01,2013-02-24 12:19:00,
2013-02-24 07:24:00,37.3,36.8,29.78,NNW,337,2.0,0.0,98,0.00,,FEW120,0.04,VWS V14.01,2013-02-24 12:24:00,
2013-02-24 07:29:00,37.4,36.9,29.78,NNW,338,2.0,0.0,98,0.00,,OVC110,0.04,VWS V14.01,2013-02-24 12:29:00,
2013-02-24 07:34:00,37.6,37.1,29.78,NNW,338,2.0,2.0,98,0.00,,OVC110,0.04,VWS V14.01,2013-02-24 12:34:00,
2013-02-24 07:39:00,37.8,37.3,29.77,NNW,338,2.0,4.0,98,0.00,,OVC110,0.04,VWS V14.01,2013-02-24 12:39:00,
2013-02-24 07:44:00,38.0,37.5,29.77,NNW,338,2.0,0.0,98,0.00,,OVC110,0.04,VWS V14.01,2013-02-24 12:44:00,
2013-02-24 07:49:00,38.3,37.8,29.77,NNW,338,2.0,0.0,98,0.00,,OVC110,0.04,VWS V14.01,2013-02-24 12:49:00,
2013-02-24 07:54:00,38.4,37.9,29.77,NNW,337,2.0,0.0,98,0.00,,OVC110,0.04,VWS V14.01,2013-02-24 12:54:00,
2013-02-24 07:59:00,38.6,38.1,29.77,NNW,337,2.0,0.0,98,0.00,,OVC020,0.04,VWS V14.01,2013-02-24 12:59:00,
2013-02-24 08:04:00,38.7,38.2,29.77,NNW,337,2.0,0.0,98,0.00,,OVC020,0.04,VWS V14.01,2013-02-24 13:04:00,
2013-02-24 08:09:00,38.9,38.4,29.77,NNW,337,2.0,0.0,98,0.00,,OVC020,0.04,VWS V14.01,2013-02-24 13:09:00,
2013-02-24 08:14:00,39.1,38.6,29.77,NNW,338,2.0,2.0,98,0.00,,OVC020,0.04,VWS V14.01,2013-02-24 13:14:00,
2013-02-24 08:19:00,39.3,38.8,29.77,NNW,338,2.0,2.0,98,0.00,,OVC020,0.04,VWS V14.01,2013-02-24 13:19:00,
2013-02-24 08:25:00,39.4,38.9,29.77,NNW,337,2.0,0.0,98,0.00,,OVC020,0.04,VWS V14.01,2013-02-24 13:25:00,
2013-02-24 08:30:00,39.7,39.2,29.78,NNW,338,2.0,2.0,98,0.00,,OVC020,0.04,VWS V14.01,2013-02-24 13:30:00,
2013-02-24 08:35:00,39.9,39.4,29.78,NNW,338,2.0,4.0,98,0.00,,OVC020,0.04,VWS V14.01,2013-02-24 13:35:00,
2013-02-24 08:40:00,40.1,39.6,29.78,NNW,337,2.0,4.0,98,0.00,,OVC020,0.04,VWS V14.01,2013-02-24 13:40:00,
2013-02-24 08:45:00,40.2,39.7,29.78,NNW,337,2.0,2.0,98,0.00,,OVC020,0.04,VWS V14.01,2013-02-24 13:45:00,
2013-02-24 08:50:00,40.6,40.1,29.78,WSW,253,2.0,8.0,98,0.00,,OVC020,0.04,VWS V14.01,2013-02-24 13:50:00,
2013-02-24 08:55:00,40.7,39.9,29.78,North,5,2.0,6.0,97,0.00,,OVC020,0.04,VWS V14.01,2013-02-24 13:55:00,
2013-02-24 09:00:00,40.9,40.1,29.78,West,267,5.0,6.0,97,0.00,,BKN020,0.04,VWS V14.01,2013-02-24 14:00:00,
2013-02-24 09:05:00,41.0,40.0,29.78,WNW,291,2.0,8.0,96,0.00,,BKN020,0.04,VWS V14.01,2013-02-24 14:05:00,
2013-02-24 09:10:00,41.1,40.0,29.78,West,281,2.0,0.0,96,0.00,,BKN020,0.04,VWS V14.01,2013-02-24 14:10:00,
2013-02-24 09:15:00,41.1,40.0,29.78,SW,230,2.0,10.0,96,0.00,,BKN020,0.04,VWS V14.01,2013-02-24 14:15:00,
2013-02-24 09:20:00,41.6,40.5,29.78,WNW,288,2.0,0.0,96,0.00,,BKN020,0.04,VWS V14.01,2013-02-24 14:20:00,
2013-02-24 09:25:00,42.1,41.0,29.77,West,270,2.0,8.0,96,0.00,,BKN020,0.04,VWS V14.01,2013-02-24 14:25:00,
2013-02-24 09:31:00,42.5,41.2,29.78,WNW,288,2.0,0.0,95,0.00,,BKN020,0.04,VWS V14.01,2013-02-24 14:31:00,
2013-02-24 09:36:00,42.9,41.3,29.77,WSW,250,2.0,12.0,94,0.00,,BKN020,0.04,VWS V14.01,2013-02-24 14:36:00,
2013-02-24 09:41:00,42.9,40.7,29.78,SW,226,11.0,11.0,92,0.00,,BKN020,0.04,VWS V14.01,2013-02-24 14:41:00,
2013-02-24 09:46:00,43.0,40.8,29.77,WNW,286,2.0,10.0,92,0.00,,BKN020,0.04,VWS V14.01,2013-02-24 14:46:00,
2013-02-24 09:51:00,43.1,40.9,29.77,North,355,11.0,11.0,92,0.00,,BKN020,0.04,VWS V14.01,2013-02-24 14:51:00,
2013-02-24 09:56:00,43.2,40.8,29.77,West,265,2.0,10.0,91,0.00,,OVC020,0.04,VWS V14.01,2013-02-24 14:56:00,
2013-02-24 10:01:00,43.4,41.0,29.78,West,265,8.0,8.0,91,0.00,,OVC020,0.04,VWS V14.01,2013-02-24 15:01:00,
2013-02-24 10:06:00,43.5,40.8,29.78,West,275,17.0,17.0,90,0.00,,OVC020,0.04,VWS V14.01,2013-02-24 15:06:00,
2013-02-24 10:11:00,43.6,40.9,29.77,WSW,247,2.0,6.0,90,0.00,,OVC020,0.04,VWS V14.01,2013-02-24 15:11:00,
2013-02-24 10:16:00,44.0,41.0,29.78,WSW,242,11.0,14.0,89,0.00,,OVC020,0.04,VWS V14.01,2013-02-24 15:16:00,
2013-02-24 10:21:00,44.7,41.7,29.77,West,281,8.0,10.0,89,0.00,,OVC020,0.04,VWS V14.01,2013-02-24 15:21:00,
2013-02-24 10:26:00,45.1,41.8,29.77,WSW,241,2.0,14.0,88,0.00,,OVC020,0.04,VWS V14.01,2013-02-24 15:26:00,
2013-02-24 10:31:00,45.7,42.1,29.77,WNW,290,2.0,2.0,87,0.00,,OVC020,0.04,VWS V14.01,2013-02-24 15:31:00,
2013-02-24 10:36:00,46.1,42.2,29.77,WNW,292,8.0,8.0,86,0.00,,OVC020,0.04,VWS V14.01,2013-02-24 15:36:00,
2013-02-24 10:41:00,46.5,42.2,29.77,WNW,295,2.0,10.0,85,0.00,,OVC020,0.04,VWS V14.01,2013-02-24 15:41:00,
2013-02-24 10:46:00,46.5,41.6,29.77,West,263,2.0,10.0,83,0.00,,OVC020,0.04,VWS V14.01,2013-02-24 15:46:00,
2013-02-24 10:52:00,46.5,41.9,29.77,West,269,2.0,2.0,84,0.00,,OVC020,0.04,VWS V14.01,2013-02-24 15:52:00,
2013-02-24 10:57:00,46.6,41.7,29.77,West,267,2.0,16.0,83,0.00,,OVC018,0.04,VWS V14.01,2013-02-24 15:57:00,
2013-02-24 11:02:00,46.2,41.3,29.77,WSW,247,5.0,18.0,83,0.00,,OVC018,0.04,VWS V14.01,2013-02-24 16:02:00,
2013-02-24 11:07:00,45.8,40.9,29.78,WSW,244,2.0,18.0,83,0.00,,OVC018,0.04,VWS V14.01,2013-02-24 16:07:00,
2013-02-24 11:12:00,45.7,40.8,29.77,WNW,298,11.0,11.0,83,0.00,,OVC018,0.04,VWS V14.01,2013-02-24 16:12:00,
2013-02-24 11:17:00,45.6,40.7,29.78,NNW,344,2.0,10.0,83,0.00,,OVC018,0.04,VWS V14.01,2013-02-24 16:17:00,
2013-02-24 11:22:00,45.5,40.7,29.78,WSW,250,11.0,11.0,83,0.00,,OVC018,0.04,VWS V14.01,2013-02-24 16:22:00,
2013-02-24 11:27:00,45.1,39.9,29.78,West,279,2.0,18.0,82,0.00,,OVC018,0.04,VWS V14.01,2013-02-24 16:27:00,
2013-02-24 11:32:00,45.0,40.2,29.78,West,272,5.0,16.0,83,0.00,,OVC018,0.04,VWS V14.01,2013-02-24 16:32:00,
2013-02-24 11:37:00,44.9,39.8,29.78,West,277,2.0,16.0,82,0.00,,OVC018,0.04,VWS V14.01,2013-02-24 16:37:00,
2013-02-24 11:42:00,45.2,40.3,29.78,NE,44,5.0,10.0,83,0.00,,OVC018,0.04,VWS V14.01,2013-02-24 16:42:00,
2013-02-24 11:47:00,45.7,40.5,29.77,WSW,249,2.0,10.0,82,0.00,,OVC018,0.04,VWS V14.01,2013-02-24 16:47:00,
2013-02-24 11:52:00,46.1,40.0,29.77,WNW,283,2.0,20.0,79,0.00,,OVC018,0.04,VWS V14.01,2013-02-24 16:52:00,
2013-02-24 11:57:00,46.3,40.5,29.77,NE,48,2.0,20.0,80,0.00,,BKN030,0.04,VWS V14.01,2013-02-24 16:57:00,
2013-02-24 12:02:00,46.4,40.2,29.77,NW,325,5.0,14.0,79,0.00,,BKN030,0.04,VWS V14.01,2013-02-24 17:02:00,
2013-02-24 12:07:00,46.5,40.3,29.77,SW,223,2.0,14.0,79,0.00,,BKN030,0.04,VWS V14.01,2013-02-24 17:07:00,
2013-02-24 12:12:00,46.8,40.3,29.76,WNW,289,8.0,8.0,78,0.00,,BKN030,0.04,VWS V14.01,2013-02-24 17:12:00,
2013-02-24 12:17:00,47.2,40.0,29.76,SSW,199,2.0,10.0,76,0.00,,BKN030,0.04,VWS V14.01,2013-02-24 17:17:00,
2013-02-24 12:23:00,47.6,40.1,29.76,SW,234,2.0,8.0,75,0.00,,BKN030,0.04,VWS V14.01,2013-02-24 17:23:00,
2013-02-24 12:27:00,47.7,39.8,29.75,West,261,20.0,20.0,74,0.00,,BKN030,0.04,VWS V14.01,2013-02-24 17:27:00,
2013-02-24 12:33:00,48.0,40.1,29.75,WSW,249,14.0,14.0,74,0.00,,BKN030,0.04,VWS V14.01,2013-02-24 17:33:00,
2013-02-24 12:38:00,48.0,39.8,29.76,NW,317,2.0,16.0,73,0.00,,BKN030,0.04,VWS V14.01,2013-02-24 17:38:00,
2013-02-24 12:43:00,48.0,40.1,29.75,NW,317,2.0,4.0,74,0.00,,BKN030,0.04,VWS V14.01,2013-02-24 17:43:00,
2013-02-24 12:48:00,47.8,39.2,29.75,WNW,295,2.0,12.0,72,0.00,,BKN030,0.04,VWS V14.01,2013-02-24 17:48:00,
2013-02-24 12:53:00,47.7,39.5,29.75,WSW,248,2.0,10.0,73,0.00,,BKN030,0.04,VWS V14.01,2013-02-24 17:53:00,
2013-02-24 12:58:00,47.5,38.9,29.75,West,279,11.0,16.0,72,0.00,,BKN036,0.04,VWS V14.01,2013-02-24 17:58:00,
2013-02-24 13:03:00,47.8,39.2,29.75,WNW,296,2.0,14.0,72,0.00,,BKN036,0.04,VWS V14.01,2013-02-24 18:03:00,
2013-02-24 13:08:00,48.2,38.9,29.75,West,265,2.0,14.0,70,0.00,,BKN036,0.04,VWS V14.01,2013-02-24 18:08:00,
2013-02-24 13:13:00,48.4,38.7,29.75,WNW,301,2.0,8.0,69,0.00,,BKN036,0.04,VWS V14.01,2013-02-24 18:13:00,
2013-02-24 13:18:00,48.5,38.4,29.75,SW,226,2.0,12.0,68,0.00,,BKN036,0.04,VWS V14.01,2013-02-24 18:18:00,
2013-02-24 13:23:00,48.7,38.2,29.75,SW,217,2.0,12.0,67,0.00,,BKN036,0.04,VWS V14.01,2013-02-24 18:23:00,
2013-02-24 13:28:00,49.6,38.7,29.74,West,269,5.0,12.0,66,0.00,,BKN036,0.04,VWS V14.01,2013-02-24 18:28:00,
2013-02-24 13:33:00,49.9,37.8,29.74,NW,304,2.0,16.0,63,0.00,,BKN036,0.04,VWS V14.01,2013-02-24 18:33:00,
2013-02-24 13:39:00,49.3,37.7,29.74,ENE,63,2.0,22.0,64,0.00,,BKN036,0.04,VWS V14.01,2013-02-24 18:39:00,
2013-02-24 13:44:00,48.8,37.6,29.74,West,265,5.0,8.0,65,0.00,,BKN036,0.04,VWS V14.01,2013-02-24 18:44:00,
2013-02-24 13:49:00,48.7,37.1,29.74,WNW,286,2.0,8.0,64,0.00,,BKN036,0.04,VWS V14.01,2013-02-24 18:49:00,
2013-02-24 13:54:00,48.7,37.9,29.74,WNW,286,2.0,2.0,66,0.00,,BKN036,0.04,VWS V14.01,2013-02-24 18:54:00,
2013-02-24 13:59:00,48.8,37.2,29.75,West,275,5.0,8.0,64,0.00,,OVC050,0.04,VWS V14.01,2013-02-24 18:59:00,
2013-02-24 14:04:00,48.8,36.8,29.75,WNW,301,5.0,6.0,63,0.00,,OVC050,0.04,VWS V14.01,2013-02-24 19:04:00,
2013-02-24 14:09:00,48.6,36.2,29.75,NW,317,11.0,12.0,62,0.00,,OVC050,0.04,VWS V14.01,2013-02-24 19:09:00,
2013-02-24 14:14:00,48.5,36.1,29.74,WSW,238,11.0,11.0,62,0.00,,OVC050,0.04,VWS V14.01,2013-02-24 19:14:00,
2013-02-24 14:19:00,48.5,35.7,29.74,WSW,246,14.0,14.0,61,0.00,,OVC050,0.04,VWS V14.01,2013-02-24 19:19:00,
2013-02-24 14:25:00,48.4,35.6,29.75,West,275,8.0,12.0,61,0.00,,OVC050,0.04,VWS V14.01,2013-02-24 19:25:00,
2013-02-24 14:30:00,48.2,35.0,29.75,WSW,252,17.0,18.0,60,0.00,,OVC050,0.04,VWS V14.01,2013-02-24 19:30:00,
2013-02-24 14:35:00,48.2,35.4,29.75,WSW,248,5.0,10.0,61,0.00,,OVC050,0.04,VWS V14.01,2013-02-24 19:35:00,
2013-02-24 14:40:00,48.2,34.6,29.75,WSW,247,5.0,20.0,59,0.00,,OVC050,0.04,VWS V14.01,2013-02-24 19:40:00,
2013-02-24 14:45:00,47.8,34.2,29.76,NW,316,14.0,14.0,59,0.00,,OVC050,0.04,VWS V14.01,2013-02-24 19:45:00,
2013-02-24 14:50:00,47.5,34.3,29.76,SW,227,5.0,14.0,60,0.00,,OVC050,0.04,VWS V14.01,2013-02-24 19:50:00,
2013-02-24 14:55:00,47.3,34.1,29.76,West,259,11.0,16.0,60,0.00,,OVC050,0.04,VWS V14.01,2013-02-24 19:55:00,
2013-02-24 15:00:00,47.0,33.8,29.76,WSW,240,2.0,26.0,60,0.00,,OVC048,0.04,VWS V14.01,2013-02-24 20:00:00,
2013-02-24 15:05:00,46.8,33.2,29.76,WSW,238,17.0,20.0,59,0.00,,OVC048,0.04,VWS V14.01,2013-02-24 20:05:00,
2013-02-24 15:10:00,46.4,33.3,29.76,WSW,244,8.0,8.0,60,0.00,,OVC048,0.04,VWS V14.01,2013-02-24 20:10:00,
2013-02-24 15:15:00,46.1,33.0,29.76,WSW,246,14.0,28.0,60,0.00,,OVC048,0.04,VWS V14.01,2013-02-24 20:15:00,
2013-02-24 15:21:00,45.8,32.7,29.76,WSW,254,14.0,14.0,60,0.00,,OVC048,0.04,VWS V14.01,2013-02-24 20:21:00,
2013-02-24 15:26:00,45.7,32.6,29.77,SW,226,2.0,14.0,60,0.00,,OVC048,0.04,VWS V14.01,2013-02-24 20:26:00,
2013-02-24 15:31:00,45.7,33.0,29.77,NNW,330,2.0,4.0,61,0.00,,OVC048,0.04,VWS V14.01,2013-02-24 20:31:00,
2013-02-24 15:36:00,45.5,32.8,29.77,WSW,258,17.0,30.0,61,0.00,,OVC048,0.04,VWS V14.01,2013-02-24 20:36:00,
2013-02-24 15:41:00,45.2,33.0,29.78,NW,309,11.0,11.0,62,0.00,,OVC048,0.04,VWS V14.01,2013-02-24 20:41:00,
2013-02-24 15:46:00,45.0,32.8,29.78,SW,231,14.0,26.0,62,0.00,,OVC048,0.04,VWS V14.01,2013-02-24 20:46:00,
2013-02-24 15:51:00,44.9,32.7,29.78,WSW,238,20.0,20.0,62,0.00,,OVC048,0.04,VWS V14.01,2013-02-24 20:51:00,
2013-02-24 15:56:00,44.8,32.6,29.78,WSW,247,11.0,26.0,62,0.00,,OVC048,0.04,VWS V14.01,2013-02-24 20:56:00,
2013-02-24 16:01:00,44.6,32.4,29.79,SW,221,2.0,8.0,62,0.00,,OVC048,0.04,VWS V14.01,2013-02-24 21:01:00,
2013-02-24 16:06:00,44.4,32.2,29.79,WSW,252,5.0,20.0,62,0.00,,OVC048,0.04,VWS V14.01,2013-02-24 21:06:00,
2013-02-24 16:11:00,44.2,32.4,29.79,NW,313,2.0,12.0,63,0.00,,OVC048,0.04,VWS V14.01,2013-02-24 21:11:00,
2013-02-24 16:16:00,44.1,32.3,29.80,SW,234,14.0,14.0,63,0.00,,OVC048,0.04,VWS V14.01,2013-02-24 21:16:00,
2013-02-24 16:21:00,43.9,32.1,29.80,West,269,14.0,14.0,63,0.00,,OVC048,0.04,VWS V14.01,2013-02-24 21:21:00,
2013-02-24 16:26:00,43.6,31.9,29.81,West,276,8.0,18.0,63,0.00,,OVC048,0.04,VWS V14.01,2013-02-24 21:26:00,
2013-02-24 16:31:00,43.3,32.0,29.81,WNW,303,8.0,14.0,64,0.00,,OVC048,0.04,VWS V14.01,2013-02-24 21:31:00,
2013-02-24 16:36:00,42.9,31.6,29.81,West,280,2.0,24.0,64,0.00,,OVC048,0.04,VWS V14.01,2013-02-24 21:36:00,
2013-02-24 16:42:00,42.6,31.7,29.82,West,274,14.0,20.0,65,0.00,,OVC048,0.04,VWS V14.01,2013-02-24 21:42:00,
2013-02-24 16:47:00,42.3,31.8,29.82,West,261,11.0,20.0,66,0.00,,OVC048,0.04,VWS V14.01,2013-02-24 21:47:00,
2013-02-24 16:52:00,42.0,31.5,29.82,WNW,284,11.0,11.0,66,0.00,,OVC048,0.04,VWS V14.01,2013-02-24 21:52:00,
2013-02-24 16:57:00,41.7,30.8,29.83,SW,219,2.0,24.0,65,0.00,,OVC045,0.04,VWS V14.01,2013-02-24 21:57:00,
2013-02-24 17:02:00,41.4,30.5,29.83,West,263,20.0,26.0,65,0.00,,OVC045,0.04,VWS V14.01,2013-02-24 22:02:00,
2013-02-24 17:07:00,41.1,30.6,29.84,WSW,251,44.0,44.0,66,0.00,,OVC045,0.04,VWS V14.01,2013-02-24 22:07:00,
2013-02-24 17:12:00,40.8,30.7,29.84,West,263,26.0,32.0,67,0.00,,OVC045,0.04,VWS V14.01,2013-02-24 22:12:00,
2013-02-24 17:17:00,40.6,30.9,29.84,WSW,257,20.0,32.0,68,0.00,,OVC045,0.04,VWS V14.01,2013-02-24 22:17:00,
2013-02-24 17:22:00,40.4,30.7,29.84,West,281,5.0,16.0,68,0.00,,OVC045,0.04,VWS V14.01,2013-02-24 22:22:00,
2013-02-24 17:27:00,40.2,30.5,29.84,West,260,5.0,18.0,68,0.00,,OVC045,0.04,VWS V14.01,2013-02-24 22:27:00,
2013-02-24 17:32:00,40.1,30.0,29.84,West,263,17.0,18.0,67,0.00,,OVC045,0.04,VWS V14.01,2013-02-24 22:32:00,
2013-02-24 17:37:00,40.0,29.9,29.85,WSW,244,8.0,18.0,67,0.00,,OVC045,0.04,VWS V14.01,2013-02-24 22:37:00,
2013-02-24 17:42:00,39.9,29.5,29.85,WSW,254,11.0,14.0,66,0.00,,OVC045,0.04,VWS V14.01,2013-02-24 22:42:00,
2013-02-24 17:47:00,39.8,29.0,29.86,West,281,8.0,26.0,65,0.00,,OVC045,0.04,VWS V14.01,2013-02-24 22:47:00,
2013-02-24 17:52:00,39.6,28.8,29.86,West,262,8.0,12.0,65,0.00,,OVC045,0.04,VWS V14.01,2013-02-24 22:52:00,
2013-02-24 17:57:00,39.5,28.7,29.86,WSW,243,2.0,16.0,65,0.00,,BKN120,0.04,VWS V14.01,2013-02-24 22:57:00,
2013-02-24 18:02:00,39.4,28.6,29.86,NNE,33,2.0,12.0,65,0.00,,BKN120,0.04,VWS V14.01,2013-02-24 23:02:00,
2013-02-24 18:07:00,39.4,28.2,29.87,WNW,297,5.0,16.0,64,0.00,,BKN120,0.04,VWS V14.01,2013-02-24 23:07:00,
2013-02-24 18:12:00,39.4,28.2,29.87,SW,232,2.0,8.0,64,0.00,,BKN120,0.04,VWS V14.01,2013-02-24 23:12:00,
2013-02-24 18:17:00,39.4,28.2,29.87,West,263,5.0,14.0,64,0.00,,BKN120,0.04,VWS V14.01,2013-02-24 23:17:00,
2013-02-24 18:22:00,39.3,27.8,29.88,West,267,2.0,14.0,63,0.00,,BKN120,0.04,VWS V14.01,2013-02-24 23:22:00,
2013-02-24 18:27:00,39.2,27.7,29.88,SW,226,26.0,28.0,63,0.00,,BKN120,0.04,VWS V14.01,2013-02-24 23:27:00,
2013-02-24 18:33:00,39.1,28.0,29.89,WSW,240,17.0,17.0,64,0.00,,BKN120,0.04,VWS V14.01,2013-02-24 23:33:00,
2013-02-24 18:38:00,39.0,27.5,29.89,NW,304,5.0,18.0,63,0.00,,BKN120,0.04,VWS V14.01,2013-02-24 23:38:00,
2013-02-24 18:43:00,39.0,27.5,29.89,WSW,248,5.0,10.0,63,0.00,,BKN120,0.04,VWS V14.01,2013-02-24 23:43:00,
2013-02-24 18:48:00,38.9,27.8,29.89,WNW,294,2.0,26.0,64,0.00,,BKN120,0.04,VWS V14.01,2013-02-24 23:48:00,
2013-02-24 18:53:00,38.9,27.8,29.90,North,9,8.0,8.0,64,0.00,,BKN120,0.04,VWS V14.01,2013-02-24 23:53:00,
2013-02-24 18:58:00,38.8,27.7,29.90,West,261,20.0,22.0,64,0.00,,OVC060,0.04,VWS V14.01,2013-02-24 23:58:00,
2013-02-24 19:03:00,38.8,27.7,29.90,West,280,8.0,14.0,64,0.00,,OVC060,0.04,VWS V14.01,2013-02-25 00:03:00,
2013-02-24 19:08:00,38.7,28.0,29.90,West,259,2.0,14.0,65,0.00,,OVC060,0.04,VWS V14.01,2013-02-25 00:08:00,
2013-02-24 19:13:00,38.7,28.0,29.91,NNE,28,14.0,14.0,65,0.00,,OVC060,0.04,VWS V14.01,2013-02-25 00:13:00,
2013-02-24 19:18:00,38.6,27.9,29.91,WSW,251,2.0,16.0,65,0.00,,OVC060,0.04,VWS V14.01,2013-02-25 00:18:00,
2013-02-24 19:23:00,38.5,27.8,29.91,WSW,247,2.0,18.0,65,0.00,,OVC060,0.04,VWS V14.01,2013-02-25 00:23:00,
2013-02-24 19:29:00,38.5,27.8,29.91,WSW,250,2.0,18.0,65,0.00,,OVC060,0.04,VWS V14.01,2013-02-25 00:29:00,
2013-02-24 19:34:00,38.5,27.8,29.91,WSW,238,2.0,22.0,65,0.00,,OVC060,0.04,VWS V14.01,2013-02-25 00:34:00,
2013-02-24 19:39:00,38.4,27.7,29.91,West,273,29.0,32.0,65,0.00,,OVC060,0.04,VWS V14.01,2013-02-25 00:39:00,
2013-02-24 19:44:00,38.2,27.5,29.92,WSW,253,5.0,10.0,65,0.00,,OVC060,0.04,VWS V14.01,2013-02-25 00:44:00,
2013-02-24 19:49:00,38.1,27.8,29.92,West,262,11.0,16.0,66,0.00,,OVC060,0.04,VWS V14.01,2013-02-25 00:49:00,
2013-02-24 19:54:00,38.0,27.3,29.92,NNE,30,8.0,18.0,65,0.00,,OVC060,0.04,VWS V14.01,2013-02-25 00:54:00,
2013-02-24 19:59:00,37.9,27.2,29.93,WNW,300,2.0,30.0,65,0.00,,OVC070,0.04,VWS V14.01,2013-02-25 00:59:00,
2013-02-24 20:04:00,37.8,27.5,29.93,West,264,2.0,14.0,66,0.00,,OVC070,0.04,VWS V14.01,2013-02-25 01:04:00,
2013-02-24 20:09:00,37.5,27.2,29.93,WSW,256,2.0,14.0,66,0.00,,OVC070,0.04,VWS V14.01,2013-02-25 01:09:00,
2013-02-24 20:14:00,37.4,27.1,29.93,NW,311,5.0,16.0,66,0.00,,OVC070,0.04,VWS V14.01,2013-02-25 01:14:00,
2013-02-24 20:19:00,37.2,27.3,29.93,West,264,2.0,16.0,67,0.00,,OVC070,0.04,VWS V14.01,2013-02-25 01:19:00,
2013-02-24 20:24:00,37.1,27.2,29.93,West,279,2.0,10.0,67,0.00,,OVC070,0.04,VWS V14.01,2013-02-25 01:24:00,
2013-02-24 20:29:00,37.0,27.1,29.94,WSW,244,2.0,14.0,67,0.00,,OVC070,0.04,VWS V14.01,2013-02-25 01:29:00,
2013-02-24 20:34:00,36.9,27.3,29.94,NNW,334,11.0,18.0,68,0.00,,OVC070,0.04,VWS V14.01,2013-02-25 01:34:00,
2013-02-24 20:39:00,36.8,27.2,29.94,WSW,238,2.0,18.0,68,0.00,,OVC070,0.04,VWS V14.01,2013-02-25 01:39:00,
2013-02-24 20:45:00,36.7,27.1,29.94,SW,228,11.0,16.0,68,0.00,,OVC070,0.04,VWS V14.01,2013-02-25 01:45:00,
2013-02-24 20:50:00,36.6,27.0,29.94,WSW,250,2.0,16.0,68,0.00,,OVC070,0.04,VWS V14.01,2013-02-25 01:50:00,
2013-02-24 20:55:00,36.6,27.0,29.94,West,259,2.0,12.0,68,0.00,,OVC070,0.04,VWS V14.01,2013-02-25 01:55:00,
2013-02-24 21:00:00,36.4,26.9,29.95,WSW,256,2.0,12.0,68,0.00,,CLR,0.04,VWS V14.01,2013-02-25 02:00:00,
2013-02-24 21:05:00,36.2,26.7,29.95,WNW,300,2.0,12.0,68,0.00,,CLR,0.04,VWS V14.01,2013-02-25 02:05:00,
2013-02-24 21:10:00,36.2,27.0,29.95,WSW,249,8.0,12.0,69,0.00,,CLR,0.04,VWS V14.01,2013-02-25 02:10:00,
2013-02-24 21:15:00,36.2,26.7,29.95,West,263,2.0,12.0,68,0.00,,CLR,0.04,VWS V14.01,2013-02-25 02:15:00,
2013-02-24 21:20:00,36.1,26.9,29.95,WSW,248,11.0,14.0,69,0.00,,CLR,0.04,VWS V14.01,2013-02-25 02:20:00,
2013-02-24 21:25:00,36.0,26.5,29.95,SW,235,2.0,14.0,68,0.00,,CLR,0.04,VWS V14.01,2013-02-25 02:25:00,
2013-02-24 21:30:00,35.9,26.4,29.95,SW,236,17.0,20.0,68,0.00,,CLR,0.04,VWS V14.01,2013-02-25 02:30:00,
2013-02-24 21:35:00,36.0,26.5,29.95,WNW,300,5.0,16.0,68,0.00,,CLR,0.04,VWS V14.01,2013-02-25 02:35:00,
2013-02-24 21:40:00,35.9,26.4,29.96,NW,321,8.0,16.0,68,0.00,,CLR,0.04,VWS V14.01,2013-02-25 02:40:00,
2013-02-24 21:45:00,35.8,26.3,29.96,SW,227,2.0,10.0,68,0.00,,CLR,0.04,VWS V14.01,2013-02-25 02:45:00,
2013-02-24 21:50:00,35.7,26.2,29.96,NW,314,2.0,12.0,68,0.00,,CLR,0.04,VWS V14.01,2013-02-25 02:50:00,
2013-02-24 21:55:00,35.7,26.2,29.96,West,264,14.0,14.0,68,0.00,,CLR,0.04,VWS V14.01,2013-02-25 02:55:00,
2013-02-24 22:00:00,35.7,26.2,29.96,WSW,245,2.0,14.0,68,0.00,,CLR,0.04,VWS V14.01,2013-02-25 03:00:00,
2013-02-24 22:05:00,35.6,26.1,29.96,West,269,2.0,12.0,68,0.00,,CLR,0.04,VWS V14.01,2013-02-25 03:05:00,
2013-02-24 22:10:00,35.5,26.0,29.96,West,267,11.0,11.0,68,0.00,,CLR,0.04,VWS V14.01,2013-02-25 03:10:00,
2013-02-24 22:15:00,35.4,25.9,29.96,WSW,251,2.0,10.0,68,0.00,,CLR,0.04,VWS V14.01,2013-02-25 03:15:00,
2013-02-24 22:21:00,35.3,25.8,29.96,WSW,249,2.0,0.0,68,0.00,,CLR,0.04,VWS V14.01,2013-02-25 03:21:00,
2013-02-24 22:26:00,35.2,26.1,29.96,WSW,244,2.0,10.0,69,0.00,,CLR,0.04,VWS V14.01,2013-02-25 03:26:00,
2013-02-24 22:31:00,35.1,26.0,29.96,SW,223,2.0,0.0,69,0.00,,CLR,0.04,VWS V14.01,2013-02-25 03:31:00,
2013-02-24 22:36:00,35.0,25.9,29.96,SW,225,2.0,6.0,69,0.00,,CLR,0.04,VWS V14.01,2013-02-25 03:36:00,
2013-02-24 22:41:00,35.0,25.9,29.96,SW,229,2.0,8.0,69,0.00,,CLR,0.04,VWS V14.01,2013-02-25 03:41:00,
2013-02-24 22:46:00,35.1,26.0,29.97,WSW,251,2.0,12.0,69,0.00,,CLR,0.04,VWS V14.01,2013-02-25 03:46:00,
2013-02-24 22:51:00,35.0,25.9,29.96,WNW,293,2.0,6.0,69,0.00,,CLR,0.04,VWS V14.01,2013-02-25 03:51:00,
2013-02-24 22:56:00,34.9,25.8,29.96,NW,310,11.0,11.0,69,0.00,,CLR,0.04,VWS V14.01,2013-02-25 03:56:00,
2013-02-24 23:01:00,35.0,25.9,29.97,WSW,257,2.0,10.0,69,0.00,,CLR,0.04,VWS V14.01,2013-02-25 04:01:00,
2013-02-24 23:06:00,34.9,26.1,29.97,WSW,244,2.0,12.0,70,0.00,,CLR,0.04,VWS V14.01,2013-02-25 04:06:00,
2013-02-24 23:11:00,34.9,25.8,29.97,WSW,239,2.0,10.0,69,0.00,,CLR,0.04,VWS V14.01,2013-02-25 04:11:00,
2013-02-24 23:16:00,34.9,26.1,29.97,WSW,240,2.0,10.0,70,0.00,,CLR,0.04,VWS V14.01,2013-02-25 04:16:00,
2013-02-24 23:22:00,34.8,26.0,29.97,SW,225,2.0,8.0,70,0.00,,CLR,0.04,VWS V14.01,2013-02-25 04:22:00,
2013-02-24 23:27:00,34.7,25.9,29.97,West,273,5.0,8.0,70,0.00,,CLR,0.04,VWS V14.01,2013-02-25 04:27:00,
2013-02-24 23:32:00,34.7,25.9,29.97,West,268,5.0,6.0,70,0.00,,CLR,0.04,VWS V14.01,2013-02-25 04:32:00,
2013-02-24 23:37:00,34.6,26.2,29.97,West,268,2.0,6.0,71,0.00,,CLR,0.04,VWS V14.01,2013-02-25 04:37:00,
2013-02-24 23:42:00,34.4,26.0,29.97,West,268,2.0,4.0,71,0.00,,CLR,0.04,VWS V14.01,2013-02-25 04:42:00,
2013-02-24 23:47:00,34.2,26.1,29.97,WSW,252,2.0,6.0,72,0.00,,CLR,0.04,VWS V14.01,2013-02-25 04:47:00,
2013-02-24 23:52:00,34.2,25.8,29.97,SW,236,2.0,4.0,71,0.00,,CLR,0.04,VWS V14.01,2013-02-25 04:52:00,
2013-02-24 23:57:00,34.3,25.9,29.97,SW,236,2.0,6.0,71,0.00,,CLR,0.04,VWS V14.01,2013-02-25 04:57:00,